sensor_id;sensor_type;location;lat;lon;timestamp;temperature;humidity
74458;SHT31;62896;51.032;3.712;2023-03-01T00:02:30;2.7;60
74458;SHT31;62896;51.032;3.712;2023-03-01T00:05:50;2.7;60
74458;SHT31;62896;51.032;3.712;2023-03-01T00:09:10;2.7;60
74458;SHT31;62896;51.032;3.712;2023-03-01T00:12:30;2.6;61
74458;SHT31;62896;51.032;3.712;2023-03-01T00:15:50;2.6;61
74458;SHT31;62896;51.032;3.712;2023-03-01T00:19:12;2.6;61
74458;SHT31;62896;51.032;3.712;2023-03-01T00:22:30;2.6;63
74458;SHT31;62896;51.032;3.712;2023-03-01T00:25:50;2.6;63
74458;SHT31;62896;51.032;3.712;2023-03-01T00:29:10;2.6;63
74458;SHT31;62896;51.032;3.712;2023-03-01T00:32:30;2.5;65
74458;SHT31;62896;51.032;3.712;2023-03-01T00:35:50;2.5;65
74458;SHT31;62896;51.032;3.712;2023-03-01T00:39:11;2.5;65
74458;SHT31;62896;51.032;3.712;2023-03-01T00:42:30;2.5;65
74458;SHT31;62896;51.032;3.712;2023-03-01T00:45:50;2.5;65
74458;SHT31;62896;51.032;3.712;2023-03-01T00:49:10;2.5;65
74458;SHT31;62896;51.032;3.712;2023-03-01T00:52:30;2.4;67
74458;SHT31;62896;51.032;3.712;2023-03-01T00:55:50;2.4;67
74458;SHT31;62896;51.032;3.712;2023-03-01T00:59:10;2.4;67
74458;SHT31;62896;51.032;3.712;2023-03-01T01:02:31;2.4;68
74458;SHT31;62896;51.032;3.712;2023-03-01T01:05:50;2.4;68
74458;SHT31;62896;51.032;3.712;2023-03-01T01:09:11;2.4;68
74458;SHT31;62896;51.032;3.712;2023-03-01T01:12:30;2.3;68
74458;SHT31;62896;51.032;3.712;2023-03-01T01:15:50;2.3;68
74458;SHT31;62896;51.032;3.712;2023-03-01T01:19:10;2.3;68
74458;SHT31;62896;51.032;3.712;2023-03-01T01:22:30;2.2;69
74458;SHT31;62896;51.032;3.712;2023-03-01T01:25:50;2.2;69
74458;SHT31;62896;51.032;3.712;2023-03-01T01:29:10;2.2;69
74458;SHT31;62896;51.032;3.712;2023-03-01T01:32:30;2.2;70
74458;SHT31;62896;51.032;3.712;2023-03-01T01:35:50;2.2;70
74458;SHT31;62896;51.032;3.712;2023-03-01T01:39:10;2.2;70
74458;SHT31;62896;51.032;3.712;2023-03-01T01:42:30;2.1;72
74458;SHT31;62896;51.032;3.712;2023-03-01T01:45:50;2.1;72
74458;SHT31;62896;51.032;3.712;2023-03-01T01:49:14;2.1;72
74458;SHT31;62896;51.032;3.712;2023-03-01T01:52:31;2;72
74458;SHT31;62896;51.032;3.712;2023-03-01T01:55:51;2;72
74458;SHT31;62896;51.032;3.712;2023-03-01T01:59:10;2;72
74458;SHT31;62896;51.032;3.712;2023-03-01T02:02:30;1.9;73
74458;SHT31;62896;51.032;3.712;2023-03-01T02:05:50;1.9;73
74458;SHT31;62896;51.032;3.712;2023-03-01T02:09:11;1.9;73
74458;SHT31;62896;51.032;3.712;2023-03-01T02:12:30;1.8;73
74458;SHT31;62896;51.032;3.712;2023-03-01T02:15:50;1.8;73
74458;SHT31;62896;51.032;3.712;2023-03-01T02:19:11;1.8;73
74458;SHT31;62896;51.032;3.712;2023-03-01T02:22:31;1.8;74
74458;SHT31;62896;51.032;3.712;2023-03-01T02:25:51;1.8;74
74458;SHT31;62896;51.032;3.712;2023-03-01T02:29:10;1.8;74
74458;SHT31;62896;51.032;3.712;2023-03-01T02:32:30;1.7;74
74458;SHT31;62896;51.032;3.712;2023-03-01T02:35:50;1.7;74
74458;SHT31;62896;51.032;3.712;2023-03-01T02:39:11;1.7;74
74458;SHT31;62896;51.032;3.712;2023-03-01T02:42:30;1.6;75
74458;SHT31;62896;51.032;3.712;2023-03-01T02:45:50;1.6;75
74458;SHT31;62896;51.032;3.712;2023-03-01T02:49:18;1.6;75
74458;SHT31;62896;51.032;3.712;2023-03-01T02:52:35;1.6;76
74458;SHT31;62896;51.032;3.712;2023-03-01T02:55:50;1.6;76
74458;SHT31;62896;51.032;3.712;2023-03-01T02:59:10;1.6;76
74458;SHT31;62896;51.032;3.712;2023-03-01T03:02:30;1.6;76
74458;SHT31;62896;51.032;3.712;2023-03-01T03:05:50;1.6;76
74458;SHT31;62896;51.032;3.712;2023-03-01T03:09:10;1.6;76
74458;SHT31;62896;51.032;3.712;2023-03-01T03:12:30;1.7;77
74458;SHT31;62896;51.032;3.712;2023-03-01T03:15:50;1.7;77
74458;SHT31;62896;51.032;3.712;2023-03-01T03:19:10;1.7;77
74458;SHT31;62896;51.032;3.712;2023-03-01T03:22:30;1.7;76
74458;SHT31;62896;51.032;3.712;2023-03-01T03:25:50;1.7;76
74458;SHT31;62896;51.032;3.712;2023-03-01T03:29:10;1.7;76
74458;SHT31;62896;51.032;3.712;2023-03-01T03:32:30;1.7;75
74458;SHT31;62896;51.032;3.712;2023-03-01T03:35:50;1.7;75
74458;SHT31;62896;51.032;3.712;2023-03-01T03:39:10;1.7;75
74458;SHT31;62896;51.032;3.712;2023-03-01T03:42:30;1.7;75
74458;SHT31;62896;51.032;3.712;2023-03-01T03:45:50;1.7;75
74458;SHT31;62896;51.032;3.712;2023-03-01T03:49:10;1.7;75
74458;SHT31;62896;51.032;3.712;2023-03-01T03:52:30;1.6;76
74458;SHT31;62896;51.032;3.712;2023-03-01T03:55:50;1.6;76
74458;SHT31;62896;51.032;3.712;2023-03-01T03:59:10;1.6;76
74458;SHT31;62896;51.032;3.712;2023-03-01T04:02:30;1.4;77
74458;SHT31;62896;51.032;3.712;2023-03-01T04:05:50;1.4;77
74458;SHT31;62896;51.032;3.712;2023-03-01T04:09:10;1.4;77
74458;SHT31;62896;51.032;3.712;2023-03-01T04:12:30;1.3;78
74458;SHT31;62896;51.032;3.712;2023-03-01T04:15:50;1.3;78
74458;SHT31;62896;51.032;3.712;2023-03-01T04:19:10;1.3;78
74458;SHT31;62896;51.032;3.712;2023-03-01T04:22:30;1.2;79
74458;SHT31;62896;51.032;3.712;2023-03-01T04:25:51;1.2;79
74458;SHT31;62896;51.032;3.712;2023-03-01T04:29:10;1.2;79
74458;SHT31;62896;51.032;3.712;2023-03-01T04:32:30;1.2;79
74458;SHT31;62896;51.032;3.712;2023-03-01T04:35:50;1.2;79
74458;SHT31;62896;51.032;3.712;2023-03-01T04:39:10;1.2;79
74458;SHT31;62896;51.032;3.712;2023-03-01T04:42:30;1;80
74458;SHT31;62896;51.032;3.712;2023-03-01T04:45:50;1;80
74458;SHT31;62896;51.032;3.712;2023-03-01T04:49:10;1;80
74458;SHT31;62896;51.032;3.712;2023-03-01T04:52:30;1;80
74458;SHT31;62896;51.032;3.712;2023-03-01T04:55:50;1;80
74458;SHT31;62896;51.032;3.712;2023-03-01T04:59:10;1;80
74458;SHT31;62896;51.032;3.712;2023-03-01T05:02:30;1;79
74458;SHT31;62896;51.032;3.712;2023-03-01T05:05:51;1;79
74458;SHT31;62896;51.032;3.712;2023-03-01T05:09:10;1;79
74458;SHT31;62896;51.032;3.712;2023-03-01T05:12:30;1;79
74458;SHT31;62896;51.032;3.712;2023-03-01T05:15:53;1;79
74458;SHT31;62896;51.032;3.712;2023-03-01T05:19:10;1;79
74458;SHT31;62896;51.032;3.712;2023-03-01T05:22:30;0.9;79
74458;SHT31;62896;51.032;3.712;2023-03-01T05:25:50;0.9;79
74458;SHT31;62896;51.032;3.712;2023-03-01T05:29:10;0.9;79
74458;SHT31;62896;51.032;3.712;2023-03-01T05:32:30;0.9;79
74458;SHT31;62896;51.032;3.712;2023-03-01T05:35:50;0.9;79
74458;SHT31;62896;51.032;3.712;2023-03-01T05:39:10;0.9;79
74458;SHT31;62896;51.032;3.712;2023-03-01T05:42:30;0.9;79
74458;SHT31;62896;51.032;3.712;2023-03-01T05:45:50;0.9;79
74458;SHT31;62896;51.032;3.712;2023-03-01T05:49:10;0.9;79
74458;SHT31;62896;51.032;3.712;2023-03-01T05:52:30;0.8;79
74458;SHT31;62896;51.032;3.712;2023-03-01T05:55:50;0.8;79
74458;SHT31;62896;51.032;3.712;2023-03-01T05:59:11;0.8;79
74458;SHT31;62896;51.032;3.712;2023-03-01T06:02:30;0.8;78
74458;SHT31;62896;51.032;3.712;2023-03-01T06:05:55;0.8;78
74458;SHT31;62896;51.032;3.712;2023-03-01T06:09:10;0.8;78
74458;SHT31;62896;51.032;3.712;2023-03-01T06:12:30;0.8;78
74458;SHT31;62896;51.032;3.712;2023-03-01T06:15:50;0.8;78
74458;SHT31;62896;51.032;3.712;2023-03-01T06:19:10;0.8;78
74458;SHT31;62896;51.032;3.712;2023-03-01T06:22:30;0.8;78
74458;SHT31;62896;51.032;3.712;2023-03-01T06:25:50;0.8;78
74458;SHT31;62896;51.032;3.712;2023-03-01T06:29:10;0.8;78
74458;SHT31;62896;51.032;3.712;2023-03-01T06:32:30;0.8;77
74458;SHT31;62896;51.032;3.712;2023-03-01T06:35:50;0.8;77
74458;SHT31;62896;51.032;3.712;2023-03-01T06:39:10;0.8;77
74458;SHT31;62896;51.032;3.712;2023-03-01T06:42:30;0.7;77
74458;SHT31;62896;51.032;3.712;2023-03-01T06:45:50;0.7;77
74458;SHT31;62896;51.032;3.712;2023-03-01T06:49:10;0.7;77
74458;SHT31;62896;51.032;3.712;2023-03-01T06:52:30;0.8;77
74458;SHT31;62896;51.032;3.712;2023-03-01T06:55:53;0.8;77
74458;SHT31;62896;51.032;3.712;2023-03-01T06:59:10;0.8;77
74458;SHT31;62896;51.032;3.712;2023-03-01T07:02:30;0.8;76
74458;SHT31;62896;51.032;3.712;2023-03-01T07:05:50;0.8;76
74458;SHT31;62896;51.032;3.712;2023-03-01T07:09:10;0.8;76
74458;SHT31;62896;51.032;3.712;2023-03-01T07:12:30;1;75
74458;SHT31;62896;51.032;3.712;2023-03-01T07:15:50;1;75
74458;SHT31;62896;51.032;3.712;2023-03-01T07:19:10;1;75
74458;SHT31;62896;51.032;3.712;2023-03-01T07:22:30;1;75
74458;SHT31;62896;51.032;3.712;2023-03-01T07:25:51;1;75
74458;SHT31;62896;51.032;3.712;2023-03-01T07:29:10;1;75
74458;SHT31;62896;51.032;3.712;2023-03-01T07:32:30;1.2;74
74458;SHT31;62896;51.032;3.712;2023-03-01T07:35:55;1.2;74
74458;SHT31;62896;51.032;3.712;2023-03-01T07:39:11;1.2;74
74458;SHT31;62896;51.032;3.712;2023-03-01T07:42:30;1.4;72
74458;SHT31;62896;51.032;3.712;2023-03-01T07:45:50;1.4;72
74458;SHT31;62896;51.032;3.712;2023-03-01T07:49:10;1.4;72
74458;SHT31;62896;51.032;3.712;2023-03-01T07:52:30;1.6;71
74458;SHT31;62896;51.032;3.712;2023-03-01T07:55:59;1.6;71
74458;SHT31;62896;51.032;3.712;2023-03-01T07:59:10;1.6;71
74458;SHT31;62896;51.032;3.712;2023-03-01T08:02:30;1.8;70
74458;SHT31;62896;51.032;3.712;2023-03-01T08:05:50;1.8;70
74458;SHT31;62896;51.032;3.712;2023-03-01T08:09:10;1.8;70
74458;SHT31;62896;51.032;3.712;2023-03-01T08:12:30;2.2;67
74458;SHT31;62896;51.032;3.712;2023-03-01T08:15:50;2.2;67
74458;SHT31;62896;51.032;3.712;2023-03-01T08:19:11;2.2;67
74458;SHT31;62896;51.032;3.712;2023-03-01T08:22:30;2.4;66
74458;SHT31;62896;51.032;3.712;2023-03-01T08:25:50;2.4;66
74458;SHT31;62896;51.032;3.712;2023-03-01T08:29:10;2.4;66
74458;SHT31;62896;51.032;3.712;2023-03-01T08:32:34;2.5;66
74458;SHT31;62896;51.032;3.712;2023-03-01T08:35:50;2.5;66
74458;SHT31;62896;51.032;3.712;2023-03-01T08:39:11;2.5;66
74458;SHT31;62896;51.032;3.712;2023-03-01T08:42:30;2.8;65
74458;SHT31;62896;51.032;3.712;2023-03-01T08:45:50;2.8;65
74458;SHT31;62896;51.032;3.712;2023-03-01T08:49:11;2.8;65
74458;SHT31;62896;51.032;3.712;2023-03-01T08:52:31;2.9;64
74458;SHT31;62896;51.032;3.712;2023-03-01T08:55:50;2.9;64
74458;SHT31;62896;51.032;3.712;2023-03-01T08:59:11;2.9;64
74458;SHT31;62896;51.032;3.712;2023-03-01T09:02:30;3.2;64
74458;SHT31;62896;51.032;3.712;2023-03-01T09:05:51;3.2;64
74458;SHT31;62896;51.032;3.712;2023-03-01T09:09:12;3.2;64
74458;SHT31;62896;51.032;3.712;2023-03-01T09:12:30;3.3;62
74458;SHT31;62896;51.032;3.712;2023-03-01T09:15:50;3.3;62
74458;SHT31;62896;51.032;3.712;2023-03-01T09:19:10;3.3;62
74458;SHT31;62896;51.032;3.712;2023-03-01T09:22:30;3.4;62
74458;SHT31;62896;51.032;3.712;2023-03-01T09:25:50;3.4;62
74458;SHT31;62896;51.032;3.712;2023-03-01T09:29:10;3.4;62
74458;SHT31;62896;51.032;3.712;2023-03-01T09:32:31;3.5;62
74458;SHT31;62896;51.032;3.712;2023-03-01T09:35:55;3.5;62
74458;SHT31;62896;51.032;3.712;2023-03-01T09:39:10;3.5;62
74458;SHT31;62896;51.032;3.712;2023-03-01T09:42:31;3.8;61
74458;SHT31;62896;51.032;3.712;2023-03-01T09:45:50;3.8;61
74458;SHT31;62896;51.032;3.712;2023-03-01T09:49:11;3.8;61
74458;SHT31;62896;51.032;3.712;2023-03-01T09:52:33;3.9;58
74458;SHT31;62896;51.032;3.712;2023-03-01T09:55:52;3.9;58
74458;SHT31;62896;51.032;3.712;2023-03-01T09:59:14;3.9;58
74458;SHT31;62896;51.032;3.712;2023-03-01T10:02:32;4.1;58
74458;SHT31;62896;51.032;3.712;2023-03-01T10:05:52;4.1;58
74458;SHT31;62896;51.032;3.712;2023-03-01T10:09:11;4.1;58
74458;SHT31;62896;51.032;3.712;2023-03-01T10:12:32;4.3;58
74458;SHT31;62896;51.032;3.712;2023-03-01T10:15:52;4.3;58
74458;SHT31;62896;51.032;3.712;2023-03-01T10:19:12;4.3;58
74458;SHT31;62896;51.032;3.712;2023-03-01T10:22:30;4.6;56
74458;SHT31;62896;51.032;3.712;2023-03-01T10:25:55;4.6;56
74458;SHT31;62896;51.032;3.712;2023-03-01T10:29:11;4.6;56
74458;SHT31;62896;51.032;3.712;2023-03-01T10:32:30;4.5;55
74458;SHT31;62896;51.032;3.712;2023-03-01T10:35:50;4.5;55
74458;SHT31;62896;51.032;3.712;2023-03-01T10:39:11;4.5;55
74458;SHT31;62896;51.032;3.712;2023-03-01T10:42:31;4.7;54
74458;SHT31;62896;51.032;3.712;2023-03-01T10:45:51;4.7;54
74458;SHT31;62896;51.032;3.712;2023-03-01T10:49:13;4.7;54
74458;SHT31;62896;51.032;3.712;2023-03-01T10:52:32;5.1;54
74458;SHT31;62896;51.032;3.712;2023-03-01T10:55:56;5.1;54
74458;SHT31;62896;51.032;3.712;2023-03-01T10:59:18;5.1;54
74458;SHT31;62896;51.032;3.712;2023-03-01T11:02:31;5.2;53
74458;SHT31;62896;51.032;3.712;2023-03-01T11:05:52;5.2;53
74458;SHT31;62896;51.032;3.712;2023-03-01T11:09:14;5.2;53
74458;SHT31;62896;51.032;3.712;2023-03-01T11:12:30;5.3;53
74458;SHT31;62896;51.032;3.712;2023-03-01T11:15:58;5.3;53
74458;SHT31;62896;51.032;3.712;2023-03-01T11:19:15;5.3;53
74458;SHT31;62896;51.032;3.712;2023-03-01T11:22:30;5.7;51
74458;SHT31;62896;51.032;3.712;2023-03-01T11:25:51;5.7;51
74458;SHT31;62896;51.032;3.712;2023-03-01T11:29:13;5.7;51
74458;SHT31;62896;51.032;3.712;2023-03-01T11:32:32;5.9;49
74458;SHT31;62896;51.032;3.712;2023-03-01T11:35:53;5.9;49
74458;SHT31;62896;51.032;3.712;2023-03-01T11:39:14;5.9;49
74458;SHT31;62896;51.032;3.712;2023-03-01T11:42:35;6.1;48
74458;SHT31;62896;51.032;3.712;2023-03-01T11:45:54;6.1;48
74458;SHT31;62896;51.032;3.712;2023-03-01T11:49:15;6.1;48
74458;SHT31;62896;51.032;3.712;2023-03-01T11:52:33;6.3;48
74458;SHT31;62896;51.032;3.712;2023-03-01T11:55:54;6.3;48
74458;SHT31;62896;51.032;3.712;2023-03-01T11:59:15;6.3;48
74458;SHT31;62896;51.032;3.712;2023-03-01T12:02:37;6.4;47
74458;SHT31;62896;51.032;3.712;2023-03-01T12:05:53;6.4;47
74458;SHT31;62896;51.032;3.712;2023-03-01T12:09:15;6.4;47
74458;SHT31;62896;51.032;3.712;2023-03-01T12:12:32;7;46
74458;SHT31;62896;51.032;3.712;2023-03-01T12:15:53;7;46
74458;SHT31;62896;51.032;3.712;2023-03-01T12:19:14;7;46
74458;SHT31;62896;51.032;3.712;2023-03-01T12:22:31;7.5;45
74458;SHT31;62896;51.032;3.712;2023-03-01T12:25:52;7.5;45
74458;SHT31;62896;51.032;3.712;2023-03-01T12:29:15;7.5;45
74458;SHT31;62896;51.032;3.712;2023-03-01T12:32:34;8;44
74458;SHT31;62896;51.032;3.712;2023-03-01T12:35:57;8;44
74458;SHT31;62896;51.032;3.712;2023-03-01T12:39:15;8;44
74458;SHT31;62896;51.032;3.712;2023-03-01T12:42:31;8.3;42
74458;SHT31;62896;51.032;3.712;2023-03-01T12:45:54;8.3;42
74458;SHT31;62896;51.032;3.712;2023-03-01T12:49:12;8.3;42
74458;SHT31;62896;51.032;3.712;2023-03-01T12:52:33;8.4;42
74458;SHT31;62896;51.032;3.712;2023-03-01T12:55:51;8.4;42
74458;SHT31;62896;51.032;3.712;2023-03-01T12:59:12;8.4;42
74458;SHT31;62896;51.032;3.712;2023-03-01T13:02:31;8.6;41
74458;SHT31;62896;51.032;3.712;2023-03-01T13:05:56;8.6;41
74458;SHT31;62896;51.032;3.712;2023-03-01T13:09:13;8.6;41
74458;SHT31;62896;51.032;3.712;2023-03-01T13:12:43;9;40
74458;SHT31;62896;51.032;3.712;2023-03-01T13:15:51;9;40
74458;SHT31;62896;51.032;3.712;2023-03-01T13:19:12;9;40
74458;SHT31;62896;51.032;3.712;2023-03-01T13:22:31;9.1;40
74458;SHT31;62896;51.032;3.712;2023-03-01T13:26:22;9.1;40
74458;SHT31;62896;51.032;3.712;2023-03-01T13:29:12;9.1;40
74458;SHT31;62896;51.032;3.712;2023-03-01T13:32:31;9.4;39
74458;SHT31;62896;51.032;3.712;2023-03-01T13:35:51;9.4;39
74458;SHT31;62896;51.032;3.712;2023-03-01T13:39:26;9.4;39
74458;SHT31;62896;51.032;3.712;2023-03-01T13:42:33;9.6;39
74458;SHT31;62896;51.032;3.712;2023-03-01T13:45:51;9.6;39
74458;SHT31;62896;51.032;3.712;2023-03-01T13:49:11;9.6;39
74458;SHT31;62896;51.032;3.712;2023-03-01T13:52:35;9.7;39
74458;SHT31;62896;51.032;3.712;2023-03-01T13:55:51;9.7;39
74458;SHT31;62896;51.032;3.712;2023-03-01T13:59:13;9.7;39
74458;SHT31;62896;51.032;3.712;2023-03-01T14:02:31;9.9;39
74458;SHT31;62896;51.032;3.712;2023-03-01T14:05:59;9.9;39
74458;SHT31;62896;51.032;3.712;2023-03-01T14:09:14;9.9;39
74458;SHT31;62896;51.032;3.712;2023-03-01T14:12:35;10.1;39
74458;SHT31;62896;51.032;3.712;2023-03-01T14:15:55;10.1;39
74458;SHT31;62896;51.032;3.712;2023-03-01T14:19:14;10.1;39
74458;SHT31;62896;51.032;3.712;2023-03-01T14:22:31;10.6;38
74458;SHT31;62896;51.032;3.712;2023-03-01T14:25:51;10.6;38
74458;SHT31;62896;51.032;3.712;2023-03-01T14:29:23;10.6;38
74458;SHT31;62896;51.032;3.712;2023-03-01T14:32:31;10.6;39
74458;SHT31;62896;51.032;3.712;2023-03-01T14:35:53;10.6;39
74458;SHT31;62896;51.032;3.712;2023-03-01T14:39:16;10.6;39
74458;SHT31;62896;51.032;3.712;2023-03-01T14:42:33;11;38
74458;SHT31;62896;51.032;3.712;2023-03-01T14:45:51;11;38
74458;SHT31;62896;51.032;3.712;2023-03-01T14:49:11;11;38
74458;SHT31;62896;51.032;3.712;2023-03-01T14:52:32;11.4;37
74458;SHT31;62896;51.032;3.712;2023-03-01T14:55:51;11.4;37
74458;SHT31;62896;51.032;3.712;2023-03-01T14:59:11;11.4;37
74458;SHT31;62896;51.032;3.712;2023-03-01T15:02:31;11.4;37
74458;SHT31;62896;51.032;3.712;2023-03-01T15:05:51;11.4;37
74458;SHT31;62896;51.032;3.712;2023-03-01T15:09:11;11.4;37
74458;SHT31;62896;51.032;3.712;2023-03-01T15:12:34;10.8;38
74458;SHT31;62896;51.032;3.712;2023-03-01T15:15:51;10.8;38
74458;SHT31;62896;51.032;3.712;2023-03-01T15:19:15;10.8;38
74458;SHT31;62896;51.032;3.712;2023-03-01T15:22:31;10.2;40
74458;SHT31;62896;51.032;3.712;2023-03-01T15:25:51;10.2;40
74458;SHT31;62896;51.032;3.712;2023-03-01T15:29:13;10.2;40
74458;SHT31;62896;51.032;3.712;2023-03-01T15:32:32;9.9;40
74458;SHT31;62896;51.032;3.712;2023-03-01T15:35:51;9.9;40
74458;SHT31;62896;51.032;3.712;2023-03-01T15:39:30;9.9;40
74458;SHT31;62896;51.032;3.712;2023-03-01T15:42:38;9.8;39
74458;SHT31;62896;51.032;3.712;2023-03-01T15:45:55;9.8;39
74458;SHT31;62896;51.032;3.712;2023-03-01T15:49:19;9.8;39
74458;SHT31;62896;51.032;3.712;2023-03-01T15:52:32;8.4;43
74458;SHT31;62896;51.032;3.712;2023-03-01T15:55:51;8.4;43
74458;SHT31;62896;51.032;3.712;2023-03-01T15:59:11;8.4;43
74458;SHT31;62896;51.032;3.712;2023-03-01T16:02:31;7.7;45
74458;SHT31;62896;51.032;3.712;2023-03-01T16:05:51;7.7;45
74458;SHT31;62896;51.032;3.712;2023-03-01T16:09:11;7.7;45
74458;SHT31;62896;51.032;3.712;2023-03-01T16:12:31;7.5;46
74458;SHT31;62896;51.032;3.712;2023-03-01T16:15:51;7.5;46
74458;SHT31;62896;51.032;3.712;2023-03-01T16:19:11;7.5;46
74458;SHT31;62896;51.032;3.712;2023-03-01T16:22:31;7.4;47
74458;SHT31;62896;51.032;3.712;2023-03-01T16:25:51;7.4;47
74458;SHT31;62896;51.032;3.712;2023-03-01T16:29:11;7.4;47
74458;SHT31;62896;51.032;3.712;2023-03-01T16:32:31;7.5;46
74458;SHT31;62896;51.032;3.712;2023-03-01T16:35:51;7.5;46
74458;SHT31;62896;51.032;3.712;2023-03-01T16:39:11;7.5;46
74458;SHT31;62896;51.032;3.712;2023-03-01T16:42:32;7.8;46
74458;SHT31;62896;51.032;3.712;2023-03-01T16:45:51;7.8;46
74458;SHT31;62896;51.032;3.712;2023-03-01T16:49:11;7.8;46
74458;SHT31;62896;51.032;3.712;2023-03-01T16:52:31;7.2;47
74458;SHT31;62896;51.032;3.712;2023-03-01T16:55:54;7.2;47
74458;SHT31;62896;51.032;3.712;2023-03-01T16:59:11;7.2;47
74458;SHT31;62896;51.032;3.712;2023-03-01T17:02:31;6.8;48
74458;SHT31;62896;51.032;3.712;2023-03-01T17:05:51;6.8;48
74458;SHT31;62896;51.032;3.712;2023-03-01T17:09:11;6.8;48
74458;SHT31;62896;51.032;3.712;2023-03-01T17:12:31;6.7;48
74458;SHT31;62896;51.032;3.712;2023-03-01T17:15:51;6.7;48
74458;SHT31;62896;51.032;3.712;2023-03-01T17:19:11;6.7;48
74458;SHT31;62896;51.032;3.712;2023-03-01T17:22:31;6.6;49
74458;SHT31;62896;51.032;3.712;2023-03-01T17:25:51;6.6;49
74458;SHT31;62896;51.032;3.712;2023-03-01T17:29:11;6.6;49
74458;SHT31;62896;51.032;3.712;2023-03-01T17:32:31;6.4;49
74458;SHT31;62896;51.032;3.712;2023-03-01T17:35:51;6.4;49
74458;SHT31;62896;51.032;3.712;2023-03-01T17:39:11;6.4;49
74458;SHT31;62896;51.032;3.712;2023-03-01T17:42:31;6.2;48
74458;SHT31;62896;51.032;3.712;2023-03-01T17:45:51;6.2;48
74458;SHT31;62896;51.032;3.712;2023-03-01T17:49:11;6.2;48
74458;SHT31;62896;51.032;3.712;2023-03-01T17:52:31;6;49
74458;SHT31;62896;51.032;3.712;2023-03-01T17:55:57;6;49
74458;SHT31;62896;51.032;3.712;2023-03-01T17:59:11;6;49
74458;SHT31;62896;51.032;3.712;2023-03-01T18:02:31;5.8;50
74458;SHT31;62896;51.032;3.712;2023-03-01T18:05:51;5.8;50
74458;SHT31;62896;51.032;3.712;2023-03-01T18:09:11;5.8;50
74458;SHT31;62896;51.032;3.712;2023-03-01T18:12:31;5.7;51
74458;SHT31;62896;51.032;3.712;2023-03-01T18:15:51;5.7;51
74458;SHT31;62896;51.032;3.712;2023-03-01T18:19:11;5.7;51
74458;SHT31;62896;51.032;3.712;2023-03-01T18:22:31;5.8;52
74458;SHT31;62896;51.032;3.712;2023-03-01T18:25:51;5.8;52
74458;SHT31;62896;51.032;3.712;2023-03-01T18:29:11;5.8;52
74458;SHT31;62896;51.032;3.712;2023-03-01T18:32:31;5.5;52
74458;SHT31;62896;51.032;3.712;2023-03-01T18:35:51;5.5;52
74458;SHT31;62896;51.032;3.712;2023-03-01T18:39:11;5.5;52
74458;SHT31;62896;51.032;3.712;2023-03-01T18:42:31;5.3;52
74458;SHT31;62896;51.032;3.712;2023-03-01T18:45:54;5.3;52
74458;SHT31;62896;51.032;3.712;2023-03-01T18:49:11;5.3;52
74458;SHT31;62896;51.032;3.712;2023-03-01T18:52:31;5.1;53
74458;SHT31;62896;51.032;3.712;2023-03-01T18:55:51;5.1;53
74458;SHT31;62896;51.032;3.712;2023-03-01T18:59:11;5.1;53
74458;SHT31;62896;51.032;3.712;2023-03-01T19:02:31;5;53
74458;SHT31;62896;51.032;3.712;2023-03-01T19:05:51;5;53
74458;SHT31;62896;51.032;3.712;2023-03-01T19:09:11;5;53
74458;SHT31;62896;51.032;3.712;2023-03-01T19:12:31;4.8;54
74458;SHT31;62896;51.032;3.712;2023-03-01T19:15:51;4.8;54
74458;SHT31;62896;51.032;3.712;2023-03-01T19:19:11;4.8;54
74458;SHT31;62896;51.032;3.712;2023-03-01T19:22:31;4.7;54
74458;SHT31;62896;51.032;3.712;2023-03-01T19:25:51;4.7;54
74458;SHT31;62896;51.032;3.712;2023-03-01T19:29:11;4.7;54
74458;SHT31;62896;51.032;3.712;2023-03-01T19:32:31;4.6;55
74458;SHT31;62896;51.032;3.712;2023-03-01T19:35:51;4.6;55
74458;SHT31;62896;51.032;3.712;2023-03-01T19:39:11;4.6;55
74458;SHT31;62896;51.032;3.712;2023-03-01T19:42:31;4.5;55
74458;SHT31;62896;51.032;3.712;2023-03-01T19:45:51;4.5;55
74458;SHT31;62896;51.032;3.712;2023-03-01T19:49:11;4.5;55
74458;SHT31;62896;51.032;3.712;2023-03-01T19:52:31;4.4;56
74458;SHT31;62896;51.032;3.712;2023-03-01T19:55:55;4.4;56
74458;SHT31;62896;51.032;3.712;2023-03-01T19:59:11;4.4;56
74458;SHT31;62896;51.032;3.712;2023-03-01T20:02:31;4.4;56
74458;SHT31;62896;51.032;3.712;2023-03-01T20:05:51;4.4;56
74458;SHT31;62896;51.032;3.712;2023-03-01T20:09:11;4.4;56
74458;SHT31;62896;51.032;3.712;2023-03-01T20:12:31;4.3;56
74458;SHT31;62896;51.032;3.712;2023-03-01T20:15:51;4.3;56
74458;SHT31;62896;51.032;3.712;2023-03-01T20:19:11;4.3;56
74458;SHT31;62896;51.032;3.712;2023-03-01T20:22:31;4.2;56
74458;SHT31;62896;51.032;3.712;2023-03-01T20:25:51;4.2;56
74458;SHT31;62896;51.032;3.712;2023-03-01T20:29:11;4.2;56
74458;SHT31;62896;51.032;3.712;2023-03-01T20:32:31;4.2;56
74458;SHT31;62896;51.032;3.712;2023-03-01T20:35:51;4.2;56
74458;SHT31;62896;51.032;3.712;2023-03-01T20:39:11;4.2;56
74458;SHT31;62896;51.032;3.712;2023-03-01T20:42:31;4.1;57
74458;SHT31;62896;51.032;3.712;2023-03-01T20:45:51;4.1;57
74458;SHT31;62896;51.032;3.712;2023-03-01T20:49:11;4.1;57
74458;SHT31;62896;51.032;3.712;2023-03-01T20:52:31;4.3;56
74458;SHT31;62896;51.032;3.712;2023-03-01T20:55:51;4.3;56
74458;SHT31;62896;51.032;3.712;2023-03-01T20:59:11;4.3;56
74458;SHT31;62896;51.032;3.712;2023-03-01T21:02:31;4.1;57
74458;SHT31;62896;51.032;3.712;2023-03-01T21:05:53;4.1;57
74458;SHT31;62896;51.032;3.712;2023-03-01T21:09:11;4.1;57
74458;SHT31;62896;51.032;3.712;2023-03-01T21:12:31;3.9;57
74458;SHT31;62896;51.032;3.712;2023-03-01T21:15:51;3.9;57
74458;SHT31;62896;51.032;3.712;2023-03-01T21:19:11;3.9;57
74458;SHT31;62896;51.032;3.712;2023-03-01T21:22:31;3.8;58
74458;SHT31;62896;51.032;3.712;2023-03-01T21:25:59;3.8;58
74458;SHT31;62896;51.032;3.712;2023-03-01T21:29:11;3.8;58
74458;SHT31;62896;51.032;3.712;2023-03-01T21:32:31;3.7;58
74458;SHT31;62896;51.032;3.712;2023-03-01T21:35:51;3.7;58
74458;SHT31;62896;51.032;3.712;2023-03-01T21:39:11;3.7;58
74458;SHT31;62896;51.032;3.712;2023-03-01T21:42:31;3.7;58
74458;SHT31;62896;51.032;3.712;2023-03-01T21:45:51;3.7;58
74458;SHT31;62896;51.032;3.712;2023-03-01T21:49:11;3.7;58
74458;SHT31;62896;51.032;3.712;2023-03-01T21:52:31;3.6;58
74458;SHT31;62896;51.032;3.712;2023-03-01T21:55:51;3.6;58
74458;SHT31;62896;51.032;3.712;2023-03-01T21:59:12;3.6;58
74458;SHT31;62896;51.032;3.712;2023-03-01T22:02:31;3.5;58
74458;SHT31;62896;51.032;3.712;2023-03-01T22:05:52;3.5;58
74458;SHT31;62896;51.032;3.712;2023-03-01T22:09:12;3.5;58
74458;SHT31;62896;51.032;3.712;2023-03-01T22:12:31;3.5;59
74458;SHT31;62896;51.032;3.712;2023-03-01T22:15:51;3.5;59
74458;SHT31;62896;51.032;3.712;2023-03-01T22:19:12;3.5;59
74458;SHT31;62896;51.032;3.712;2023-03-01T22:22:31;3.4;59
74458;SHT31;62896;51.032;3.712;2023-03-01T22:25:51;3.4;59
74458;SHT31;62896;51.032;3.712;2023-03-01T22:29:12;3.4;59
74458;SHT31;62896;51.032;3.712;2023-03-01T22:32:31;3.3;59
74458;SHT31;62896;51.032;3.712;2023-03-01T22:35:53;3.3;59
74458;SHT31;62896;51.032;3.712;2023-03-01T22:39:12;3.3;59
74458;SHT31;62896;51.032;3.712;2023-03-01T22:42:31;3.2;59
74458;SHT31;62896;51.032;3.712;2023-03-01T22:45:51;3.2;59
74458;SHT31;62896;51.032;3.712;2023-03-01T22:49:11;3.2;59
74458;SHT31;62896;51.032;3.712;2023-03-01T22:52:31;3.2;59
74458;SHT31;62896;51.032;3.712;2023-03-01T22:55:51;3.2;59